Latest Weather Observations for Edithburgh

IDS60801

Issued at 11:02 am CST Wednesday 22 April 2015 (issued every 30 minutes, with the page automatically refreshed every 10 minutes)

About weather observations | Map of weather stations | Latest weather observations for SA | Other Formats
Station Details ID: 022046 Name: EDITHBURGH Lat: -35.11 Lon: 137.74 Height: 6.0 m
Data from the previous 72 hours. | See also: Recent months at Edithburgh
Date/Time
CST
Temp
°C
App
Temp
°C
Dew
Point
Rel
Hum
%
Delta-T
°C
Wind Press
QNH
hPa
Press
MSL
hPa
Rain
since 9 am
mm
Dir
 
Spd
km/h
Gust
km/h
Spd
kts
Gust
kts
22/11:00am 16.6 13.5 9.0 61 3.9 SE 15 22 8 12 1026.6 1026.5 0.0
22/10:30am 16.5 13.1 9.3 62 3.7 SE 17 22 9 12 1026.9 1026.8 0.0
22/10:00am 16.4 13.0 9.0 61 3.8 SSE 17 20 9 11 1027.0 1026.9 0.0
22/09:30am 16.4 13.3 9.0 61 3.8 SE 15 24 8 13 1027.0 1026.9 0.0
22/09:00am 16.6 13.5 9.0 61 3.9 SSE 15 22 8 12 1027.1 1027.0 0.0
22/08:30am 15.5 12.3 8.3 62 3.6 SE 15 19 8 10 1027.2 1027.1 0.0
22/08:00am 15.1 12.2 8.3 64 3.4 SE 13 19 7 10 1027.5 1027.4 0.0
22/07:30am 14.8 11.5 7.9 63 3.4 SE 15 20 8 11 1027.4 1027.3 0.0
22/07:00am 14.2 10.9 7.9 66 3.1 SE 15 17 8 9 1027.3 1027.2 0.0
22/06:30am 14.1 11.4 8.9 71 2.6 SE 13 19 7 10 1027.2 1027.1 0.0
22/06:00am 14.1 10.5 8.5 69 2.8 SE 17 22 9 12 1027.2 1027.1 0.0
22/05:30am 14.4 10.8 8.4 67 3.0 SE 17 22 9 12 1027.4 1027.3 0.0
22/05:00am 14.6 11.1 8.8 68 2.9 SE 17 20 9 11 1027.4 1027.3 0.0
22/04:30am 14.5 10.9 8.5 67 3.0 SE 17 20 9 11 1027.5 1027.4 0.0
22/04:00am 14.5 11.4 8.7 68 2.9 SE 15 19 8 10 1027.6 1027.5 0.0
22/03:30am 14.1 10.6 8.7 70 2.7 ESE 17 26 9 14 1027.2 1027.1 0.0
22/03:00am 14.4 10.4 9.1 70 2.7 ESE 20 28 11 15 1027.2 1027.1 0.0
22/02:30am 14.6 10.3 9.5 71 2.6 ESE 22 28 12 15 1027.1 1027.0 0.0
22/02:00am 14.5 9.8 9.2 70 2.7 SE 24 32 13 17 1027.4 1027.3 0.0
22/01:30am 14.7 10.1 9.6 71 2.6 SE 24 35 13 19 1027.9 1027.8 0.0
22/01:00am 14.7 10.8 9.4 70 2.7 SE 20 28 11 15 1028.3 1028.2 0.0
22/12:30am 14.8 11.4 9.3 69 2.8 SE 17 24 9 13 1028.9 1028.8 0.0
22/12:00am 14.6 10.9 9.3 70 2.7 SE 19 22 10 12 1028.9 1028.8 0.0
 
Date/Time
CST
Temp
°C
App
Temp
°C
Dew
Point
Rel
Hum
%
Delta-T
°C
Wind Press
QNH
hPa
Press
MSL
hPa
Rain
since 9 am
mm
Dir
 
Spd
km/h
Gust
km/h
Spd
kts
Gust
kts
21/11:30pm 14.8 10.8 9.1 68 2.9 SE 20 26 11 14 1029.0 1028.9 0.0
21/11:00pm 14.7 10.7 9.0 68 2.9 SE 20 26 11 14 1029.1 1029.0 0.0
21/10:30pm 14.7 10.7 9.0 68 2.9 SE 20 28 11 15 1029.6 1029.5 0.0
21/10:00pm 14.6 10.5 8.6 67 3.0 SE 20 28 11 15 1030.0 1029.9 0.0
21/09:30pm 14.7 10.2 8.7 67 3.0 SE 22 26 12 14 1030.0 1029.9 0.0
21/09:00pm 14.8 9.9 8.4 65 3.2 SE 24 30 13 16 1029.8 1029.7 0.0
21/08:30pm 14.9 10.7 8.3 64 3.3 SE 20 28 11 15 1030.0 1029.9 0.0
21/08:00pm 15.1 10.5 8.1 63 3.5 SE 22 28 12 15 1030.0 1029.9 0.0
21/07:30pm 15.2 10.0 7.2 59 3.9 SE 24 33 13 18 1030.2 1030.1 0.0
21/07:00pm 15.3 9.8 7.4 59 3.9 SE 26 35 14 19 1030.1 1030.0 0.0
21/06:30pm 15.3 9.8 7.4 59 3.9 SE 26 37 14 20 1030.1 1030.0 0.0
21/06:00pm 15.1 9.5 7.1 59 3.9 SSE 26 33 14 18 1030.1 1030.0 0.0
21/05:30pm 15.2 9.6 7.0 58 4.0 SSE 26 33 14 18 1030.0 1029.9 0.0
21/05:00pm 15.5 10.3 7.1 57 4.1 SSE 24 35 13 19 1029.8 1029.7 0.0
21/04:30pm 16.0 11.4 6.5 53 4.6 SSE 20 28 11 15 1029.7 1029.6 0.0
21/04:00pm 16.2 11.6 6.3 52 4.8 SE 20 24 11 13 1029.8 1029.7 0.0
21/03:30pm 16.4 11.7 6.0 50 5.0 SE 20 26 11 14 1030.0 1029.9 0.0
21/03:00pm 16.4 11.8 6.3 51 4.9 SE 20 26 11 14 1030.2 1030.1 0.0
21/02:30pm 17.2 12.6 6.3 48 5.3 SE 20 30 11 16 1030.5 1030.4 0.0
21/02:00pm 16.9 11.7 5.4 46 5.5 SE 22 26 12 14 1030.5 1030.4 0.0
21/01:30pm 16.6 11.8 5.7 48 5.2 SE 20 24 11 13 1031.2 1031.1 0.0
21/01:00pm 16.1 11.4 6.1 51 4.8 SE 20 28 11 15 1031.6 1031.5 0.0
21/12:30pm 16.3 11.8 6.9 53 4.6 SE 20 26 11 14 1032.2 1032.1 0.0
21/12:00pm 16.1 11.1 6.6 53 4.6 SE 22 30 12 16 1033.0 1032.9 0.0
21/11:30am 16.6 12.1 6.8 52 4.8 ESE 20 28 11 15 1033.6 1033.5 0.0
21/11:00am 16.3 12.0 7.1 54 4.6 ESE 19 24 10 13 1034.1 1034.0 0.0
21/10:30am 15.6 11.2 6.7 55 4.3 ESE 19 26 10 14 1034.5 1034.4 0.0
21/10:00am 15.5 11.3 7.6 59 3.9 ESE 19 22 10 12 1034.7 1034.6 0.0
21/09:30am 15.4 11.4 8.2 62 3.6 ESE 19 26 10 14 1034.8 1034.7 0.0
21/09:00am 16.0 11.2 7.2 56 4.3 ESE 22 30 12 16 1035.1 1035.0 0.0
21/08:30am 14.5 10.0 7.1 61 3.6 ESE 20 30 11 16 1035.1 1035.0 0.0
21/08:00am 14.2 9.7 6.9 61 3.5 ESE 20 28 11 15 1034.8 1034.7 0.0
21/07:30am 13.7 9.2 6.8 63 3.3 ESE 20 28 11 15 1034.4 1034.3 0.0
21/07:00am 13.4 8.8 6.4 62 3.3 ESE 20 24 11 13 1034.3 1034.2 0.0
21/06:30am 13.3 8.8 6.1 61 3.4 ESE 19 22 10 12 1034.4 1034.3 0.0
21/06:00am 13.4 8.5 5.2 57 3.8 ESE 20 30 11 16 1034.3 1034.2 0.0
21/05:30am 13.4 8.3 5.9 60 3.5 ESE 22 30 12 16 1034.4 1034.3 0.0
21/05:00am 13.3 8.7 6.6 64 3.2 ESE 20 30 11 16 1034.3 1034.2 0.0
21/04:30am 13.3 8.8 6.8 64 3.1 ESE 20 28 11 15 1034.3 1034.2 0.0
21/04:00am 13.4 8.5 6.9 65 3.1 ESE 22 28 12 15 1034.2 1034.1 0.0
21/03:30am 13.4 8.8 6.7 64 3.2 ESE 20 30 11 16 1034.4 1034.3 0.0
21/03:00am 13.8 8.0 6.4 61 3.5 ESE 26 37 14 20 1034.4 1034.3 0.0
21/02:30am 13.9 8.6 6.8 62 3.4 ESE 24 35 13 19 1034.5 1034.4 0.0
21/02:00am 14.1 8.8 6.6 60 3.6 ESE 24 32 13 17 1034.8 1034.7 0.0
21/01:30am 14.3 8.3 7.1 62 3.5 ESE 28 35 15 19 1034.8 1034.7 0.0
21/01:00am 14.7 9.6 7.5 62 3.6 ESE 24 33 13 18 1035.1 1035.0 0.0
21/12:30am 14.7 9.4 8.3 65 3.2 ESE 26 35 14 19 1034.9 1034.8 0.0
21/12:00am 15.0 9.7 7.0 59 3.9 SE 24 32 13 17 1035.1 1035.0 0.0
 
Date/Time
CST
Temp
°C
App
Temp
°C
Dew
Point
Rel
Hum
%
Delta-T
°C
Wind Press
QNH
hPa
Press
MSL
hPa
Rain
since 9 am
mm
Dir
 
Spd
km/h
Gust
km/h
Spd
kts
Gust
kts
20/11:30pm 15.2 8.9 5.7 53 4.5 SE 28 39 15 21 1035.4 1035.3 0.0
20/11:00pm 14.7 8.7 5.3 53 4.4 SE 26 35 14 19 1035.7 1035.6 0.0
20/10:30pm 14.9 9.5 7.8 62 3.5 SE 26 35 14 19 1035.8 1035.7 0.0
20/10:00pm 15.0 9.4 5.4 52 4.5 SE 24 33 13 18 1036.1 1036.0 0.0
20/09:30pm 14.8 9.2 7.2 60 3.7 SE 26 33 14 18 1036.2 1036.1 0.0
20/09:00pm 14.7 9.7 8.0 64 3.3 ESE 24 32 13 17 1036.2 1036.1 0.0
20/08:30pm 14.8 9.3 7.7 62 3.5 SE 26 37 14 20 1036.2 1036.1 0.0
20/08:00pm 14.7 9.8 6.8 59 3.8 SE 22 30 12 16 1036.4 1036.3 0.0
20/07:30pm 14.5 9.4 5.8 56 4.1 SE 22 32 12 17 1036.4 1036.3 0.0
20/07:00pm 14.7 9.8 6.8 59 3.8 SE 22 33 12 18 1036.3 1036.2 0.0
20/06:30pm 14.7 9.4 6.6 58 3.9 SSE 24 32 13 17 1036.2 1036.1 0.0
20/06:00pm 14.7 9.6 6.1 56 4.1 SSE 22 35 12 19 1036.1 1036.0 0.0
20/05:30pm 14.5 8.3 4.4 50 4.6 SE 26 35 14 19 1035.9 1035.8 0.0
20/05:00pm 14.8 8.8 5.1 52 4.6 SE 26 33 14 18 1035.8 1035.7 0.0
20/04:30pm 15.3 10.1 5.3 51 4.7 SE 22 30 12 16 1035.9 1035.8 0.0
20/04:00pm 15.5 9.3 4.2 47 5.2 SE 26 33 14 18 1035.8 1035.7 0.0
20/03:30pm 16.3 10.3 3.3 42 5.9 SE 24 33 13 18 1035.9 1035.8 0.0
20/03:00pm 16.1 10.5 3.3 42 5.8 SE 22 30 12 16 1036.0 1035.9 0.0
20/02:30pm 15.5 10.3 3.6 45 5.4 SE 20 26 11 14 1036.0 1035.9 0.0
20/02:00pm 15.7 10.1 3.3 43 5.7 SE 22 30 12 16 1036.2 1036.1 0.0
20/01:30pm 16.3 11.1 3.3 42 5.9 SE 20 28 11 15 1036.5 1036.4 0.0
20/01:00pm 15.4 9.8 3.4 44 5.5 SE 22 32 12 17 1036.9 1036.8 0.0
20/12:30pm 15.5 10.3 3.3 44 5.5 ESE 20 32 11 17 1037.4 1037.3 0.0
20/12:00pm 15.0 9.4 3.4 45 5.2 ESE 22 28 12 15 1038.1 1038.1 0.0
20/11:30am 15.3 9.7 3.3 44 5.4 ESE 22 30 12 16 1038.5 1038.5 0.0
20/11:00am 15.3 9.7 3.3 44 5.5 ESE 22 32 12 17 1038.9 1038.9 0.0
20/10:30am 14.9 9.2 3.0 44 5.3 E 22 30 12 16 1039.1 1039.1 0.0
20/10:00am 14.1 8.4 3.0 47 5.0 E 22 30 12 16 1039.2 1039.2 0.0
20/09:30am 14.5 9.0 3.9 49 4.8 E 22 30 12 16 1039.2 1039.2 0.0
20/09:00am 13.9 8.3 3.3 49 4.7 E 22 30 12 16 1039.1 1039.1 0.0
20/08:30am 13.7 7.6 3.0 48 4.7 E 24 30 13 16 1039.3 1039.3 0.0
20/08:00am 13.6 8.0 3.5 50 4.5 E 22 32 12 17 1039.0 1039.0 0.0
20/07:30am 13.2 8.0 3.5 52 4.3 E 20 28 11 15 1038.7 1038.7 0.0
20/07:00am 12.5 7.3 3.4 54 4.0 ESE 20 30 11 16 1038.4 1038.4 0.0
20/06:30am 12.4 7.5 4.1 57 3.7 E 19 28 10 15 1038.2 1038.2 0.0
20/06:00am 12.1 6.7 4.5 59 3.4 E 22 30 12 16 1038.1 1038.1 0.0
20/05:30am 12.0 6.9 4.1 58 3.5 E 20 28 11 15 1038.1 1038.1 0.0
20/05:00am 12.6 7.4 3.8 55 3.9 ESE 20 26 11 14 1037.9 1037.9 0.0
20/04:30am 12.7 7.1 3.7 54 4.0 ESE 22 30 12 16 1037.7 1037.6 0.0
20/04:00am 12.8 7.4 4.4 56 3.8 ESE 22 30 12 16 1037.3 1037.2 0.0
20/03:30am 12.8 7.4 4.4 56 3.8 E 22 28 12 15 1037.3 1037.2 0.0
20/03:00am 12.8 7.8 4.6 57 3.7 E 20 28 11 15 1037.4 1037.3 0.0
20/02:30am 13.1 7.3 4.2 54 4.0 E 24 33 13 18 1037.4 1037.3 0.0
20/02:00am 13.4 8.1 4.9 56 3.9 E 22 28 12 15 1037.6 1037.5 0.0
20/01:30am 13.7 8.5 5.3 57 3.9 ESE 22 32 12 17 1037.3 1037.2 0.0
20/01:00am 13.7 8.6 4.2 52 4.3 ESE 20 26 11 14 1037.3 1037.2 0.0
20/12:30am 13.5 8.2 3.0 49 4.6 SE 20 32 11 17 1037.3 1037.2 0.0
20/12:00am 13.5 8.1 2.4 47 4.8 SE 20 30 11 16 1037.3 1037.2 0.0
 
Date/Time
CST
Temp
°C
App
Temp
°C
Dew
Point
Rel
Hum
%
Delta-T
°C
Wind Press
QNH
hPa
Press
MSL
hPa
Rain
since 9 am
mm
Dir
 
Spd
km/h
Gust
km/h
Spd
kts
Gust
kts
19/11:30pm 13.8 7.7 2.9 47 4.8 SE 24 35 13 19 1037.4 1037.3 0.0
19/11:00pm 13.9 8.5 4.4 52 4.4 SE 22 32 12 17 1037.5 1037.4 0.0
19/10:30pm 13.9 7.7 4.2 52 4.4 SE 26 32 14 17 1037.5 1037.4 0.0
19/10:00pm 14.1 8.3 4.4 52 4.5 SE 24 32 13 17 1037.4 1037.3 0.0
19/09:30pm 14.1 8.7 4.4 52 4.4 SE 22 37 12 20 1037.2 1037.1 0.0
19/09:00pm 13.7 8.1 3.6 50 4.5 SSE 22 32 12 17 1037.0 1036.9 0.0
19/08:30pm 13.5 7.8 2.7 48 4.7 SSE 22 30 12 16 1036.8 1036.7 0.0
19/08:00pm 13.7 7.4 1.5 43 5.3 SSE 24 32 13 17 1036.4 1036.3 0.0
19/07:30pm 13.8 7.7 2.6 46 4.9 SSE 24 32 13 17 1036.2 1036.1 0.0
19/07:00pm 13.9 7.4 2.4 45 5.1 SSE 26 35 14 19 1035.9 1035.8 0.0
19/06:30pm 13.9 7.8 3.0 47 4.8 SSE 24 32 13 17 1035.5 1035.4 0.0
19/06:00pm 13.8 7.5 1.7 44 5.2 SSE 24 33 13 18 1035.2 1035.1 0.0
19/05:30pm 13.9 7.9 3.3 49 4.7 SE 24 35 13 19 1034.8 1034.7 0.0
19/05:00pm 14.3 7.3 3.9 49 4.7 SE 30 35 16 19 1034.5 1034.4 0.0
19/04:30pm 14.4 7.6 3.2 47 5.0 SSE 28 37 15 20 1034.4 1034.3 0.0
19/04:00pm 14.8 8.8 3.4 46 5.2 SSE 24 33 13 18 1034.4 1034.3 0.0
19/03:30pm 15.9 9.7 4.5 46 5.3 SSE 26 35 14 19 1034.2 1034.1 0.0
19/03:00pm 15.6 8.9 3.7 45 5.4 SSE 28 37 15 20 1034.0 1033.9 0.0
19/02:30pm 15.8 9.0 3.1 42 5.7 SSE 28 35 15 19 1033.8 1033.7 0.0
19/02:00pm 15.8 8.8 1.9 39 6.2 SSE 28 35 15 19 1033.6 1033.5 0.0
19/01:30pm 16.7 10.4 3.9 42 5.9 SSE 26 37 14 20 1033.8 1033.7 0.0
19/01:00pm 16.0 8.9 1.6 37 6.3 SSE 28 35 15 19 1033.6 1033.5 0.0
19/12:30pm 15.2 8.8 3.1 44 5.4 SSE 26 35 14 19 1033.9 1033.8 0.0
19/12:00pm 16.0 9.4 1.9 38 6.2 SSE 26 33 14 18 1033.9 1033.8 0.0
19/11:30am 15.1 8.8 3.9 47 5.1 SSE 26 33 14 18 1034.0 1033.9 0.0

Other Formats:

Comma delimited format used in spreadsheet applications
http://www.bom.gov.au/fwo/IDS60801/IDS60801.94809.axf

JavaScript Object Notation format (JSON) in row-major order
http://www.bom.gov.au/fwo/IDS60801/IDS60801.94809.json